sensor_id;sensor_type;location;lat;lon;timestamp;P1;durP1;ratioP1;P2;durP2;ratioP2
27925;SDS011;15267;47.838;12.128;2023-03-31T00:00:10;7.63;;;4.03;;
27925;SDS011;15267;47.838;12.128;2023-03-31T00:02:37;5.10;;;4.18;;
27925;SDS011;15267;47.838;12.128;2023-03-31T00:05:07;5.70;;;4.57;;
27925;SDS011;15267;47.838;12.128;2023-03-31T00:07:33;6.35;;;4.70;;
27925;SDS011;15267;47.838;12.128;2023-03-31T00:10:02;6.20;;;5.38;;
27925;SDS011;15267;47.838;12.128;2023-03-31T00:12:28;6.93;;;4.55;;
27925;SDS011;15267;47.838;12.128;2023-03-31T00:14:53;5.18;;;4.60;;
27925;SDS011;15267;47.838;12.128;2023-03-31T00:17:19;7.35;;;4.40;;
27925;SDS011;15267;47.838;12.128;2023-03-31T00:19:45;5.93;;;4.78;;
27925;SDS011;15267;47.838;12.128;2023-03-31T00:22:14;5.45;;;4.60;;
27925;SDS011;15267;47.838;12.128;2023-03-31T00:24:42;5.28;;;4.75;;
27925;SDS011;15267;47.838;12.128;2023-03-31T00:27:08;7.40;;;4.70;;
27925;SDS011;15267;47.838;12.128;2023-03-31T00:29:35;5.68;;;4.57;;
27925;SDS011;15267;47.838;12.128;2023-03-31T00:32:05;5.30;;;4.80;;
27925;SDS011;15267;47.838;12.128;2023-03-31T00:34:31;6.75;;;4.28;;
27925;SDS011;15267;47.838;12.128;2023-03-31T00:36:57;7.50;;;5.35;;
27925;SDS011;15267;47.838;12.128;2023-03-31T00:39:27;5.75;;;4.80;;
27925;SDS011;15267;47.838;12.128;2023-03-31T00:42:01;7.03;;;4.95;;
27925;SDS011;15267;47.838;12.128;2023-03-31T00:44:27;6.32;;;4.63;;
27925;SDS011;15267;47.838;12.128;2023-03-31T00:47:02;6.40;;;4.53;;
27925;SDS011;15267;47.838;12.128;2023-03-31T00:51:56;6.22;;;4.80;;
27925;SDS011;15267;47.838;12.128;2023-03-31T00:54:26;5.25;;;4.50;;
27925;SDS011;15267;47.838;12.128;2023-03-31T00:56:52;6.70;;;4.80;;
27925;SDS011;15267;47.838;12.128;2023-03-31T00:59:23;6.50;;;4.80;;
27925;SDS011;15267;47.838;12.128;2023-03-31T01:01:51;6.38;;;5.07;;
27925;SDS011;15267;47.838;12.128;2023-03-31T01:04:17;8.38;;;5.20;;
27925;SDS011;15267;47.838;12.128;2023-03-31T01:06:57;7.43;;;4.85;;
27925;SDS011;15267;47.838;12.128;2023-03-31T01:09:29;6.43;;;5.00;;
27925;SDS011;15267;47.838;12.128;2023-03-31T01:11:59;5.35;;;4.38;;
27925;SDS011;15267;47.838;12.128;2023-03-31T01:14:25;6.55;;;5.20;;
27925;SDS011;15267;47.838;12.128;2023-03-31T01:16:51;5.88;;;5.05;;
27925;SDS011;15267;47.838;12.128;2023-03-31T01:19:28;6.82;;;5.03;;
27925;SDS011;15267;47.838;12.128;2023-03-31T01:27:22;6.90;;;5.38;;
27925;SDS011;15267;47.838;12.128;2023-03-31T01:32:45;9.57;;;5.10;;
27925;SDS011;15267;47.838;12.128;2023-03-31T01:35:17;6.20;;;5.32;;
27925;SDS011;15267;47.838;12.128;2023-03-31T01:43:11;7.60;;;5.57;;
27925;SDS011;15267;47.838;12.128;2023-03-31T01:48:06;13.27;;;5.80;;
27925;SDS011;15267;47.838;12.128;2023-03-31T01:50:39;7.03;;;5.65;;
27925;SDS011;15267;47.838;12.128;2023-03-31T01:56:03;5.32;;;4.82;;
27925;SDS011;15267;47.838;12.128;2023-03-31T01:58:34;6.50;;;5.13;;
27925;SDS011;15267;47.838;12.128;2023-03-31T02:01:04;6.50;;;4.88;;
27925;SDS011;15267;47.838;12.128;2023-03-31T02:03:32;7.13;;;5.30;;
27925;SDS011;15267;47.838;12.128;2023-03-31T02:05:59;5.68;;;5.07;;
27925;SDS011;15267;47.838;12.128;2023-03-31T02:08:28;6.32;;;5.43;;
27925;SDS011;15267;47.838;12.128;2023-03-31T02:10:56;8.00;;;5.18;;
27925;SDS011;15267;47.838;12.128;2023-03-31T02:13:23;5.90;;;5.28;;
27925;SDS011;15267;47.838;12.128;2023-03-31T02:15:52;6.05;;;5.45;;
27925;SDS011;15267;47.838;12.128;2023-03-31T02:18:22;6.18;;;5.22;;
27925;SDS011;15267;47.838;12.128;2023-03-31T02:20:50;6.72;;;4.85;;
27925;SDS011;15267;47.838;12.128;2023-03-31T02:23:19;6.25;;;5.00;;
27925;SDS011;15267;47.838;12.128;2023-03-31T02:25:52;7.38;;;5.03;;
27925;SDS011;15267;47.838;12.128;2023-03-31T02:28:20;6.82;;;5.30;;
27925;SDS011;15267;47.838;12.128;2023-03-31T02:30:50;7.53;;;5.63;;
27925;SDS011;15267;47.838;12.128;2023-03-31T02:33:17;5.70;;;5.07;;
27925;SDS011;15267;47.838;12.128;2023-03-31T02:35:43;6.43;;;5.30;;
27925;SDS011;15267;47.838;12.128;2023-03-31T02:38:09;6.70;;;5.13;;
27925;SDS011;15267;47.838;12.128;2023-03-31T02:40:35;6.60;;;5.05;;
27925;SDS011;15267;47.838;12.128;2023-03-31T02:43:02;6.25;;;5.10;;
27925;SDS011;15267;47.838;12.128;2023-03-31T02:45:38;7.57;;;5.82;;
27925;SDS011;15267;47.838;12.128;2023-03-31T02:48:06;6.53;;;5.75;;
27925;SDS011;15267;47.838;12.128;2023-03-31T02:50:36;7.45;;;5.97;;
27925;SDS011;15267;47.838;12.128;2023-03-31T02:58:09;7.78;;;5.70;;
27925;SDS011;15267;47.838;12.128;2023-03-31T03:15:50;6.38;;;5.22;;
27925;SDS011;15267;47.838;12.128;2023-03-31T03:18:17;6.60;;;5.28;;
27925;SDS011;15267;47.838;12.128;2023-03-31T03:20:43;5.68;;;5.05;;
27925;SDS011;15267;47.838;12.128;2023-03-31T03:23:15;7.50;;;5.18;;
27925;SDS011;15267;47.838;12.128;2023-03-31T03:25:42;6.80;;;5.32;;
27925;SDS011;15267;47.838;12.128;2023-03-31T03:28:08;5.97;;;5.35;;
27925;SDS011;15267;47.838;12.128;2023-03-31T03:30:34;8.05;;;5.50;;
27925;SDS011;15267;47.838;12.128;2023-03-31T03:33:00;10.00;;;6.00;;
27925;SDS011;15267;47.838;12.128;2023-03-31T03:35:27;7.68;;;5.70;;
27925;SDS011;15267;47.838;12.128;2023-03-31T03:37:53;7.25;;;6.00;;
27925;SDS011;15267;47.838;12.128;2023-03-31T03:40:19;6.90;;;5.88;;
27925;SDS011;15267;47.838;12.128;2023-03-31T03:42:45;8.73;;;6.10;;
27925;SDS011;15267;47.838;12.128;2023-03-31T03:45:11;8.52;;;6.40;;
27925;SDS011;15267;47.838;12.128;2023-03-31T03:47:37;8.30;;;6.72;;
27925;SDS011;15267;47.838;12.128;2023-03-31T03:50:03;8.68;;;6.63;;
27925;SDS011;15267;47.838;12.128;2023-03-31T03:52:29;8.80;;;6.63;;
27925;SDS011;15267;47.838;12.128;2023-03-31T03:54:55;11.70;;;6.88;;
27925;SDS011;15267;47.838;12.128;2023-03-31T03:57:21;9.82;;;6.65;;
27925;SDS011;15267;47.838;12.128;2023-03-31T03:59:47;9.68;;;6.68;;
27925;SDS011;15267;47.838;12.128;2023-03-31T04:02:13;7.80;;;6.75;;
27925;SDS011;15267;47.838;12.128;2023-03-31T04:04:39;10.32;;;7.97;;
27925;SDS011;15267;47.838;12.128;2023-03-31T04:07:05;9.77;;;8.20;;
27925;SDS011;15267;47.838;12.128;2023-03-31T04:09:31;9.90;;;8.27;;
27925;SDS011;15267;47.838;12.128;2023-03-31T04:11:57;12.07;;;8.50;;
27925;SDS011;15267;47.838;12.128;2023-03-31T04:14:23;9.20;;;7.95;;
27925;SDS011;15267;47.838;12.128;2023-03-31T04:16:50;10.70;;;8.60;;
27925;SDS011;15267;47.838;12.128;2023-03-31T04:19:16;8.88;;;7.88;;
27925;SDS011;15267;47.838;12.128;2023-03-31T04:21:42;10.55;;;7.90;;
27925;SDS011;15267;47.838;12.128;2023-03-31T04:24:22;10.40;;;7.57;;
27925;SDS011;15267;47.838;12.128;2023-03-31T04:26:54;10.65;;;7.53;;
27925;SDS011;15267;47.838;12.128;2023-03-31T04:29:20;10.07;;;7.55;;
27925;SDS011;15267;47.838;12.128;2023-03-31T04:31:50;11.27;;;8.60;;
27925;SDS011;15267;47.838;12.128;2023-03-31T04:34:17;11.18;;;9.13;;
27925;SDS011;15267;47.838;12.128;2023-03-31T04:36:46;10.05;;;8.15;;
27925;SDS011;15267;47.838;12.128;2023-03-31T04:39:16;9.55;;;8.55;;
27925;SDS011;15267;47.838;12.128;2023-03-31T04:41:54;13.88;;;8.95;;
27925;SDS011;15267;47.838;12.128;2023-03-31T04:44:20;11.63;;;9.15;;
27925;SDS011;15267;47.838;12.128;2023-03-31T04:46:46;10.52;;;9.02;;
27925;SDS011;15267;47.838;12.128;2023-03-31T04:49:12;10.85;;;9.50;;
27925;SDS011;15267;47.838;12.128;2023-03-31T04:51:38;11.48;;;9.00;;
27925;SDS011;15267;47.838;12.128;2023-03-31T04:54:05;11.30;;;9.32;;
27925;SDS011;15267;47.838;12.128;2023-03-31T04:56:30;11.40;;;9.25;;
27925;SDS011;15267;47.838;12.128;2023-03-31T04:58:56;9.60;;;8.60;;
27925;SDS011;15267;47.838;12.128;2023-03-31T05:01:22;11.80;;;9.20;;
27925;SDS011;15267;47.838;12.128;2023-03-31T05:03:48;11.27;;;9.10;;
27925;SDS011;15267;47.838;12.128;2023-03-31T05:06:15;15.88;;;9.70;;
27925;SDS011;15267;47.838;12.128;2023-03-31T05:08:41;11.02;;;9.75;;
27925;SDS011;15267;47.838;12.128;2023-03-31T05:11:07;13.32;;;10.02;;
27925;SDS011;15267;47.838;12.128;2023-03-31T05:13:33;11.82;;;9.48;;
27925;SDS011;15267;47.838;12.128;2023-03-31T05:16:05;10.65;;;9.00;;
27925;SDS011;15267;47.838;12.128;2023-03-31T05:18:31;12.63;;;9.88;;
27925;SDS011;15267;47.838;12.128;2023-03-31T05:20:57;13.57;;;10.32;;
27925;SDS011;15267;47.838;12.128;2023-03-31T05:23:32;11.43;;;8.70;;
27925;SDS011;15267;47.838;12.128;2023-03-31T05:25:58;11.30;;;9.02;;
27925;SDS011;15267;47.838;12.128;2023-03-31T05:28:24;11.30;;;8.23;;
27925;SDS011;15267;47.838;12.128;2023-03-31T05:30:50;11.02;;;8.25;;
27925;SDS011;15267;47.838;12.128;2023-03-31T05:33:16;11.10;;;9.10;;
27925;SDS011;15267;47.838;12.128;2023-03-31T05:35:42;17.58;;;11.45;;
27925;SDS011;15267;47.838;12.128;2023-03-31T05:38:08;17.92;;;11.65;;
27925;SDS011;15267;47.838;12.128;2023-03-31T05:40:34;15.85;;;9.90;;
27925;SDS011;15267;47.838;12.128;2023-03-31T05:43:00;12.82;;;8.85;;
27925;SDS011;15267;47.838;12.128;2023-03-31T05:45:26;12.95;;;8.93;;
27925;SDS011;15267;47.838;12.128;2023-03-31T05:47:52;11.48;;;8.52;;
27925;SDS011;15267;47.838;12.128;2023-03-31T05:50:18;11.75;;;8.70;;
27925;SDS011;15267;47.838;12.128;2023-03-31T05:52:44;13.10;;;9.48;;
27925;SDS011;15267;47.838;12.128;2023-03-31T05:55:10;11.68;;;8.20;;
27925;SDS011;15267;47.838;12.128;2023-03-31T05:57:37;10.80;;;8.20;;
27925;SDS011;15267;47.838;12.128;2023-03-31T06:00:03;11.85;;;8.07;;
27925;SDS011;15267;47.838;12.128;2023-03-31T06:02:31;13.30;;;8.40;;
27925;SDS011;15267;47.838;12.128;2023-03-31T06:04:57;10.27;;;7.72;;
27925;SDS011;15267;47.838;12.128;2023-03-31T06:07:23;13.48;;;8.50;;
27925;SDS011;15267;47.838;12.128;2023-03-31T06:09:50;12.73;;;7.72;;
27925;SDS011;15267;47.838;12.128;2023-03-31T06:12:16;10.35;;;7.78;;
27925;SDS011;15267;47.838;12.128;2023-03-31T06:14:42;12.65;;;8.05;;
27925;SDS011;15267;47.838;12.128;2023-03-31T06:17:08;9.23;;;7.05;;
27925;SDS011;15267;47.838;12.128;2023-03-31T06:19:34;11.15;;;7.20;;
27925;SDS011;15267;47.838;12.128;2023-03-31T06:22:00;10.60;;;7.07;;
27925;SDS011;15267;47.838;12.128;2023-03-31T06:24:26;12.60;;;6.40;;
27925;SDS011;15267;47.838;12.128;2023-03-31T06:26:52;9.98;;;7.05;;
27925;SDS011;15267;47.838;12.128;2023-03-31T06:29:18;9.27;;;6.60;;
27925;SDS011;15267;47.838;12.128;2023-03-31T06:31:44;10.52;;;6.25;;
27925;SDS011;15267;47.838;12.128;2023-03-31T06:34:10;10.23;;;6.43;;
27925;SDS011;15267;47.838;12.128;2023-03-31T06:36:36;9.00;;;6.15;;
27925;SDS011;15267;47.838;12.128;2023-03-31T06:39:02;7.75;;;6.05;;
27925;SDS011;15267;47.838;12.128;2023-03-31T06:41:28;8.82;;;6.07;;
27925;SDS011;15267;47.838;12.128;2023-03-31T06:43:54;8.60;;;6.32;;
27925;SDS011;15267;47.838;12.128;2023-03-31T06:46:20;9.02;;;5.82;;
27925;SDS011;15267;47.838;12.128;2023-03-31T06:48:47;9.95;;;5.90;;
27925;SDS011;15267;47.838;12.128;2023-03-31T06:51:13;7.10;;;5.70;;
27925;SDS011;15267;47.838;12.128;2023-03-31T06:53:39;7.07;;;5.85;;
27925;SDS011;15267;47.838;12.128;2023-03-31T06:56:05;7.60;;;6.18;;
27925;SDS011;15267;47.838;12.128;2023-03-31T06:58:31;7.55;;;5.55;;
27925;SDS011;15267;47.838;12.128;2023-03-31T07:00:57;9.20;;;5.57;;
27925;SDS011;15267;47.838;12.128;2023-03-31T07:03:23;7.18;;;5.68;;
27925;SDS011;15267;47.838;12.128;2023-03-31T07:05:50;7.97;;;5.85;;
27925;SDS011;15267;47.838;12.128;2023-03-31T07:08:16;11.82;;;8.85;;
27925;SDS011;15267;47.838;12.128;2023-03-31T07:10:42;8.20;;;6.65;;
27925;SDS011;15267;47.838;12.128;2023-03-31T07:13:12;8.25;;;5.00;;
27925;SDS011;15267;47.838;12.128;2023-03-31T07:15:39;7.50;;;5.30;;
27925;SDS011;15267;47.838;12.128;2023-03-31T07:18:05;8.18;;;5.18;;
27925;SDS011;15267;47.838;12.128;2023-03-31T07:20:31;9.13;;;5.43;;
27925;SDS011;15267;47.838;12.128;2023-03-31T07:22:58;5.43;;;4.25;;
27925;SDS011;15267;47.838;12.128;2023-03-31T07:25:24;7.20;;;4.35;;
27925;SDS011;15267;47.838;12.128;2023-03-31T07:27:50;6.40;;;4.63;;
27925;SDS011;15267;47.838;12.128;2023-03-31T07:30:17;6.80;;;4.82;;
27925;SDS011;15267;47.838;12.128;2023-03-31T07:32:47;6.68;;;4.65;;
27925;SDS011;15267;47.838;12.128;2023-03-31T07:35:13;7.30;;;4.65;;
27925;SDS011;15267;47.838;12.128;2023-03-31T07:37:40;8.00;;;5.32;;
27925;SDS011;15267;47.838;12.128;2023-03-31T07:40:07;8.32;;;4.80;;
27925;SDS011;15267;47.838;12.128;2023-03-31T07:42:34;7.10;;;5.20;;
27925;SDS011;15267;47.838;12.128;2023-03-31T07:45:00;7.65;;;4.82;;
27925;SDS011;15267;47.838;12.128;2023-03-31T07:47:27;7.55;;;5.00;;
27925;SDS011;15267;47.838;12.128;2023-03-31T07:49:53;8.43;;;5.80;;
27925;SDS011;15267;47.838;12.128;2023-03-31T07:52:19;7.65;;;5.60;;
27925;SDS011;15267;47.838;12.128;2023-03-31T07:54:45;8.40;;;5.72;;
27925;SDS011;15267;47.838;12.128;2023-03-31T07:57:11;10.25;;;5.22;;
27925;SDS011;15267;47.838;12.128;2023-03-31T07:59:38;10.68;;;5.53;;
27925;SDS011;15267;47.838;12.128;2023-03-31T08:02:04;6.93;;;5.20;;
27925;SDS011;15267;47.838;12.128;2023-03-31T08:04:30;7.82;;;5.32;;
27925;SDS011;15267;47.838;12.128;2023-03-31T08:06:56;7.95;;;5.38;;
27925;SDS011;15267;47.838;12.128;2023-03-31T08:09:22;9.65;;;6.05;;
27925;SDS011;15267;47.838;12.128;2023-03-31T08:11:48;6.90;;;4.93;;
27925;SDS011;15267;47.838;12.128;2023-03-31T08:14:14;7.15;;;5.60;;
27925;SDS011;15267;47.838;12.128;2023-03-31T08:16:40;6.55;;;5.25;;
27925;SDS011;15267;47.838;12.128;2023-03-31T08:19:06;7.45;;;5.50;;
27925;SDS011;15267;47.838;12.128;2023-03-31T08:21:32;7.85;;;5.80;;
27925;SDS011;15267;47.838;12.128;2023-03-31T08:23:58;8.93;;;5.93;;
27925;SDS011;15267;47.838;12.128;2023-03-31T08:26:24;8.02;;;5.45;;
27925;SDS011;15267;47.838;12.128;2023-03-31T08:28:50;8.73;;;5.60;;
27925;SDS011;15267;47.838;12.128;2023-03-31T08:31:17;8.77;;;6.10;;
27925;SDS011;15267;47.838;12.128;2023-03-31T08:33:44;8.48;;;6.00;;
27925;SDS011;15267;47.838;12.128;2023-03-31T08:36:10;9.27;;;6.63;;
27925;SDS011;15267;47.838;12.128;2023-03-31T08:38:37;9.38;;;7.00;;
27925;SDS011;15267;47.838;12.128;2023-03-31T08:41:06;12.23;;;9.85;;
27925;SDS011;15267;47.838;12.128;2023-03-31T08:43:36;21.85;;;7.30;;
27925;SDS011;15267;47.838;12.128;2023-03-31T08:46:05;11.20;;;8.82;;
27925;SDS011;15267;47.838;12.128;2023-03-31T08:48:41;7.68;;;6.82;;
27925;SDS011;15267;47.838;12.128;2023-03-31T08:51:22;9.50;;;7.30;;
27925;SDS011;15267;47.838;12.128;2023-03-31T08:53:55;11.27;;;7.70;;
27925;SDS011;15267;47.838;12.128;2023-03-31T08:56:22;10.85;;;7.82;;
27925;SDS011;15267;47.838;12.128;2023-03-31T08:58:50;10.30;;;8.00;;
27925;SDS011;15267;47.838;12.128;2023-03-31T09:06:45;9.65;;;7.30;;
27925;SDS011;15267;47.838;12.128;2023-03-31T09:09:35;11.43;;;7.13;;
27925;SDS011;15267;47.838;12.128;2023-03-31T09:12:06;10.48;;;6.47;;
27925;SDS011;15267;47.838;12.128;2023-03-31T09:17:05;10.65;;;7.80;;
27925;SDS011;15267;47.838;12.128;2023-03-31T09:19:37;11.00;;;7.80;;
27925;SDS011;15267;47.838;12.128;2023-03-31T09:22:05;12.27;;;7.30;;
27925;SDS011;15267;47.838;12.128;2023-03-31T09:24:38;8.38;;;7.13;;
27925;SDS011;15267;47.838;12.128;2023-03-31T09:27:09;6.80;;;5.53;;
27925;SDS011;15267;47.838;12.128;2023-03-31T09:29:40;6.35;;;4.95;;
27925;SDS011;15267;47.838;12.128;2023-03-31T09:32:13;8.07;;;5.47;;
27925;SDS011;15267;47.838;12.128;2023-03-31T09:34:39;8.18;;;4.97;;
27925;SDS011;15267;47.838;12.128;2023-03-31T09:37:05;8.13;;;5.53;;
27925;SDS011;15267;47.838;12.128;2023-03-31T09:39:31;7.72;;;5.45;;
27925;SDS011;15267;47.838;12.128;2023-03-31T09:41:57;8.23;;;4.97;;
27925;SDS011;15267;47.838;12.128;2023-03-31T09:44:25;6.78;;;4.80;;
27925;SDS011;15267;47.838;12.128;2023-03-31T09:46:52;6.68;;;4.90;;
27925;SDS011;15267;47.838;12.128;2023-03-31T09:49:20;7.10;;;4.60;;
27925;SDS011;15267;47.838;12.128;2023-03-31T09:51:47;6.15;;;4.72;;
27925;SDS011;15267;47.838;12.128;2023-03-31T09:54:24;6.07;;;4.57;;
27925;SDS011;15267;47.838;12.128;2023-03-31T09:56:53;6.65;;;5.00;;
27925;SDS011;15267;47.838;12.128;2023-03-31T09:59:20;8.20;;;4.63;;
27925;SDS011;15267;47.838;12.128;2023-03-31T10:01:50;7.15;;;5.03;;
27925;SDS011;15267;47.838;12.128;2023-03-31T10:04:19;7.40;;;4.97;;
27925;SDS011;15267;47.838;12.128;2023-03-31T10:06:45;6.15;;;4.47;;
27925;SDS011;15267;47.838;12.128;2023-03-31T10:09:12;6.57;;;4.97;;
27925;SDS011;15267;47.838;12.128;2023-03-31T10:11:39;6.32;;;4.90;;
27925;SDS011;15267;47.838;12.128;2023-03-31T10:14:15;8.70;;;4.80;;
27925;SDS011;15267;47.838;12.128;2023-03-31T10:17:15;7.20;;;4.63;;
27925;SDS011;15267;47.838;12.128;2023-03-31T10:19:34;7.13;;;4.97;;
27925;SDS011;15267;47.838;12.128;2023-03-31T10:22:44;5.85;;;4.50;;
27925;SDS011;15267;47.838;12.128;2023-03-31T10:24:51;6.75;;;4.90;;
27925;SDS011;15267;47.838;12.128;2023-03-31T10:27:28;8.45;;;4.90;;
27925;SDS011;15267;47.838;12.128;2023-03-31T10:29:55;9.38;;;4.88;;
27925;SDS011;15267;47.838;12.128;2023-03-31T10:34:57;6.95;;;4.72;;
27925;SDS011;15267;47.838;12.128;2023-03-31T10:37:25;6.32;;;4.78;;
27925;SDS011;15267;47.838;12.128;2023-03-31T10:39:59;6.93;;;5.43;;
27925;SDS011;15267;47.838;12.128;2023-03-31T10:42:28;5.80;;;4.60;;
27925;SDS011;15267;47.838;12.128;2023-03-31T10:45:40;4.88;;;4.07;;
27925;SDS011;15267;47.838;12.128;2023-03-31T10:47:40;5.50;;;4.07;;
27925;SDS011;15267;47.838;12.128;2023-03-31T10:50:13;6.82;;;4.72;;
27925;SDS011;15267;47.838;12.128;2023-03-31T10:52:44;5.95;;;4.47;;
27925;SDS011;15267;47.838;12.128;2023-03-31T10:55:11;6.43;;;4.20;;
27925;SDS011;15267;47.838;12.128;2023-03-31T10:57:48;6.63;;;4.50;;
27925;SDS011;15267;47.838;12.128;2023-03-31T11:00:38;6.55;;;4.55;;
27925;SDS011;15267;47.838;12.128;2023-03-31T11:08:19;6.72;;;4.97;;
27925;SDS011;15267;47.838;12.128;2023-03-31T11:13:25;7.35;;;4.70;;
27925;SDS011;15267;47.838;12.128;2023-03-31T11:15:56;6.35;;;4.20;;
27925;SDS011;15267;47.838;12.128;2023-03-31T11:26:02;5.10;;;3.90;;
27925;SDS011;15267;47.838;12.128;2023-03-31T11:33:41;5.78;;;3.50;;
27925;SDS011;15267;47.838;12.128;2023-03-31T11:36:15;7.22;;;3.58;;
27925;SDS011;15267;47.838;12.128;2023-03-31T11:41:40;6.45;;;3.42;;
27925;SDS011;15267;47.838;12.128;2023-03-31T11:44:09;5.28;;;2.65;;
27925;SDS011;15267;47.838;12.128;2023-03-31T11:52:02;5.78;;;3.67;;
27925;SDS011;15267;47.838;12.128;2023-03-31T11:54:33;4.22;;;2.42;;
27925;SDS011;15267;47.838;12.128;2023-03-31T11:57:01;6.88;;;3.22;;
27925;SDS011;15267;47.838;12.128;2023-03-31T11:59:29;5.68;;;3.00;;
27925;SDS011;15267;47.838;12.128;2023-03-31T12:02:00;7.55;;;3.03;;
27925;SDS011;15267;47.838;12.128;2023-03-31T12:04:37;6.57;;;2.72;;
27925;SDS011;15267;47.838;12.128;2023-03-31T12:07:16;4.30;;;2.60;;
27925;SDS011;15267;47.838;12.128;2023-03-31T12:09:58;2.55;;;2.15;;
27925;SDS011;15267;47.838;12.128;2023-03-31T12:12:29;2.95;;;2.00;;
27925;SDS011;15267;47.838;12.128;2023-03-31T12:15:12;4.57;;;2.10;;
27925;SDS011;15267;47.838;12.128;2023-03-31T12:17:39;2.85;;;2.15;;
27925;SDS011;15267;47.838;12.128;2023-03-31T12:20:11;4.15;;;2.47;;
27925;SDS011;15267;47.838;12.128;2023-03-31T12:22:40;3.47;;;2.10;;
27925;SDS011;15267;47.838;12.128;2023-03-31T12:25:12;3.70;;;2.60;;
27925;SDS011;15267;47.838;12.128;2023-03-31T12:27:39;4.13;;;2.75;;
27925;SDS011;15267;47.838;12.128;2023-03-31T12:30:10;4.13;;;2.78;;
27925;SDS011;15267;47.838;12.128;2023-03-31T12:32:38;10.75;;;6.25;;
27925;SDS011;15267;47.838;12.128;2023-03-31T12:40:03;5.00;;;3.95;;
27925;SDS011;15267;47.838;12.128;2023-03-31T12:45:23;4.20;;;2.60;;
27925;SDS011;15267;47.838;12.128;2023-03-31T12:47:54;3.28;;;2.40;;
27925;SDS011;15267;47.838;12.128;2023-03-31T12:50:30;4.57;;;2.80;;
27925;SDS011;15267;47.838;12.128;2023-03-31T12:53:08;3.80;;;2.90;;
27925;SDS011;15267;47.838;12.128;2023-03-31T13:05:58;12.07;;;8.10;;
27925;SDS011;15267;47.838;12.128;2023-03-31T13:11:09;10.13;;;6.85;;
27925;SDS011;15267;47.838;12.128;2023-03-31T13:13:35;10.77;;;7.10;;
27925;SDS011;15267;47.838;12.128;2023-03-31T13:16:01;10.65;;;6.07;;
27925;SDS011;15267;47.838;12.128;2023-03-31T13:18:27;6.97;;;4.57;;
27925;SDS011;15267;47.838;12.128;2023-03-31T13:20:59;8.68;;;5.07;;
27925;SDS011;15267;47.838;12.128;2023-03-31T13:23:27;11.60;;;5.68;;
27925;SDS011;15267;47.838;12.128;2023-03-31T13:25:55;13.43;;;9.55;;
27925;SDS011;15267;47.838;12.128;2023-03-31T13:30:49;6.90;;;2.20;;
27925;SDS011;15267;47.838;12.128;2023-03-31T13:33:19;7.88;;;2.58;;
27925;SDS011;15267;47.838;12.128;2023-03-31T13:35:46;7.05;;;2.10;;
27925;SDS011;15267;47.838;12.128;2023-03-31T13:43:37;4.80;;;2.08;;
27925;SDS011;15267;47.838;12.128;2023-03-31T13:46:21;5.82;;;2.17;;
27925;SDS011;15267;47.838;12.128;2023-03-31T13:51:31;4.45;;;2.35;;
27925;SDS011;15267;47.838;12.128;2023-03-31T13:56:36;5.50;;;2.47;;
27925;SDS011;15267;47.838;12.128;2023-03-31T13:59:12;3.83;;;2.10;;
27925;SDS011;15267;47.838;12.128;2023-03-31T14:06:56;3.70;;;1.90;;
27925;SDS011;15267;47.838;12.128;2023-03-31T14:09:24;4.30;;;1.40;;
27925;SDS011;15267;47.838;12.128;2023-03-31T14:11:52;3.00;;;1.40;;
27925;SDS011;15267;47.838;12.128;2023-03-31T14:14:18;7.55;;;1.80;;
27925;SDS011;15267;47.838;12.128;2023-03-31T14:21:39;4.20;;;1.70;;
27925;SDS011;15267;47.838;12.128;2023-03-31T14:24:25;2.83;;;1.42;;
27925;SDS011;15267;47.838;12.128;2023-03-31T14:26:58;3.30;;;1.90;;
27925;SDS011;15267;47.838;12.128;2023-03-31T14:29:40;5.85;;;2.20;;
27925;SDS011;15267;47.838;12.128;2023-03-31T14:32:25;5.50;;;2.47;;
27925;SDS011;15267;47.838;12.128;2023-03-31T14:35:04;3.42;;;1.70;;
27925;SDS011;15267;47.838;12.128;2023-03-31T14:37:33;7.88;;;5.47;;
27925;SDS011;15267;47.838;12.128;2023-03-31T14:39:59;6.95;;;5.35;;
27925;SDS011;15267;47.838;12.128;2023-03-31T14:42:37;5.57;;;3.20;;
27925;SDS011;15267;47.838;12.128;2023-03-31T14:45:05;7.78;;;4.72;;
27925;SDS011;15267;47.838;12.128;2023-03-31T14:47:33;4.95;;;3.33;;
27925;SDS011;15267;47.838;12.128;2023-03-31T14:50:14;4.75;;;3.25;;
27925;SDS011;15267;47.838;12.128;2023-03-31T14:52:45;6.72;;;3.30;;
27925;SDS011;15267;47.838;12.128;2023-03-31T14:55:14;4.50;;;2.42;;
27925;SDS011;15267;47.838;12.128;2023-03-31T14:57:40;3.22;;;2.13;;
27925;SDS011;15267;47.838;12.128;2023-03-31T15:00:13;4.65;;;2.55;;
27925;SDS011;15267;47.838;12.128;2023-03-31T15:02:40;6.72;;;2.40;;
27925;SDS011;15267;47.838;12.128;2023-03-31T15:05:07;4.70;;;2.38;;
27925;SDS011;15267;47.838;12.128;2023-03-31T15:07:34;4.75;;;2.05;;
27925;SDS011;15267;47.838;12.128;2023-03-31T15:10:01;5.55;;;2.10;;
27925;SDS011;15267;47.838;12.128;2023-03-31T15:12:27;3.67;;;2.33;;
27925;SDS011;15267;47.838;12.128;2023-03-31T15:14:55;3.78;;;2.45;;
27925;SDS011;15267;47.838;12.128;2023-03-31T15:17:27;4.20;;;2.30;;
27925;SDS011;15267;47.838;12.128;2023-03-31T15:19:57;4.55;;;2.38;;
27925;SDS011;15267;47.838;12.128;2023-03-31T15:22:27;3.67;;;2.25;;
27925;SDS011;15267;47.838;12.128;2023-03-31T15:24:53;4.05;;;1.98;;
27925;SDS011;15267;47.838;12.128;2023-03-31T15:29:52;4.65;;;2.88;;
27925;SDS011;15267;47.838;12.128;2023-03-31T15:32:27;3.17;;;1.90;;
27925;SDS011;15267;47.838;12.128;2023-03-31T15:34:53;2.00;;;1.20;;
27925;SDS011;15267;47.838;12.128;2023-03-31T15:37:21;3.95;;;2.15;;
27925;SDS011;15267;47.838;12.128;2023-03-31T15:39:51;3.55;;;1.60;;
27925;SDS011;15267;47.838;12.128;2023-03-31T15:42:16;3.55;;;1.95;;
27925;SDS011;15267;47.838;12.128;2023-03-31T15:44:44;2.35;;;1.13;;
27925;SDS011;15267;47.838;12.128;2023-03-31T15:49:46;3.17;;;2.10;;
27925;SDS011;15267;47.838;12.128;2023-03-31T15:52:47;8.30;;;2.75;;
27925;SDS011;15267;47.838;12.128;2023-03-31T15:57:50;3.75;;;2.40;;
27925;SDS011;15267;47.838;12.128;2023-03-31T16:00:39;5.07;;;2.47;;
27925;SDS011;15267;47.838;12.128;2023-03-31T16:03:18;2.58;;;1.30;;
27925;SDS011;15267;47.838;12.128;2023-03-31T16:05:54;2.25;;;2.00;;
27925;SDS011;15267;47.838;12.128;2023-03-31T16:08:22;3.55;;;2.67;;
27925;SDS011;15267;47.838;12.128;2023-03-31T16:10:54;2.97;;;1.63;;
27925;SDS011;15267;47.838;12.128;2023-03-31T16:13:20;3.28;;;2.00;;
27925;SDS011;15267;47.838;12.128;2023-03-31T16:15:47;4.70;;;3.30;;
27925;SDS011;15267;47.838;12.128;2023-03-31T16:18:16;5.15;;;3.67;;
27925;SDS011;15267;47.838;12.128;2023-03-31T16:20:44;7.10;;;4.07;;
27925;SDS011;15267;47.838;12.128;2023-03-31T16:23:15;5.50;;;3.42;;
27925;SDS011;15267;47.838;12.128;2023-03-31T16:25:42;3.65;;;2.30;;
27925;SDS011;15267;47.838;12.128;2023-03-31T16:28:11;3.53;;;2.72;;
27925;SDS011;15267;47.838;12.128;2023-03-31T16:30:39;15.00;;;9.20;;
27925;SDS011;15267;47.838;12.128;2023-03-31T16:33:09;5.97;;;3.50;;
27925;SDS011;15267;47.838;12.128;2023-03-31T16:35:38;14.35;;;7.68;;
27925;SDS011;15267;47.838;12.128;2023-03-31T16:38:04;28.65;;;14.80;;
27925;SDS011;15267;47.838;12.128;2023-03-31T16:40:33;69.85;;;40.25;;
27925;SDS011;15267;47.838;12.128;2023-03-31T16:43:11;9.50;;;6.03;;
27925;SDS011;15267;47.838;12.128;2023-03-31T16:45:37;4.72;;;3.13;;
27925;SDS011;15267;47.838;12.128;2023-03-31T16:48:03;4.13;;;2.75;;
27925;SDS011;15267;47.838;12.128;2023-03-31T16:50:29;3.70;;;2.40;;
27925;SDS011;15267;47.838;12.128;2023-03-31T16:52:55;3.95;;;3.05;;